Time,TemperatureF,DewpointF,PressureIn,WindDirection,WindDirectionDegrees,WindSpeedMPH,WindSpeedGustMPH,Humidity,HourlyPrecipIn,Conditions,Clouds,dailyrainin,SolarRadiationWatts/m^2,SoftwareType,DateUTC
2013-04-20 00:00:00,64.7,63.2,29.77,South,178,0.0,12.0,95,0.00,,,1.01,0,Wunderground v.1.15,2013-04-20 04:00:00,
2013-04-20 00:05:00,64.8,63.3,29.78,South,175,0.0,12.0,95,0.00,,,0.00,0,Wunderground v.1.15,2013-04-20 04:05:00,
2013-04-20 00:10:00,64.8,63.6,29.78,SE,138,0.0,12.0,96,0.00,,,0.00,0,Wunderground v.1.15,2013-04-20 04:10:00,
2013-04-20 00:15:00,64.6,63.1,29.78,South,177,3.0,12.0,95,0.00,,,0.00,0,Wunderground v.1.15,2013-04-20 04:15:00,
2013-04-20 00:20:00,64.8,63.6,29.79,South,181,4.0,12.0,96,0.00,,,0.00,0,Wunderground v.1.15,2013-04-20 04:20:00,
2013-04-20 00:25:00,64.6,63.4,29.78,SSE,154,4.0,12.0,96,0.00,,,0.00,0,Wunderground v.1.15,2013-04-20 04:25:00,
2013-04-20 00:30:00,64.6,63.4,29.79,South,186,4.0,12.0,96,0.00,,,0.00,0,Wunderground v.1.15,2013-04-20 04:30:00,
2013-04-20 00:35:00,64.7,63.5,29.78,SSE,153,4.0,12.0,96,0.00,,,0.00,0,Wunderground v.1.15,2013-04-20 04:35:00,
2013-04-20 00:40:00,64.6,63.1,29.78,South,189,5.0,12.0,95,0.00,,,0.00,0,Wunderground v.1.15,2013-04-20 04:40:00,
2013-04-20 00:45:00,64.4,62.9,29.79,South,170,6.0,12.0,95,0.00,,,0.01,0,Wunderground v.1.15,2013-04-20 04:45:00,
2013-04-20 00:50:00,64.5,63.0,29.79,South,191,5.0,5.0,95,0.13,,,0.02,0,Wunderground v.1.15,2013-04-20 04:50:00,
2013-04-20 00:55:00,64.4,62.9,29.79,SW,219,3.0,12.0,95,0.24,,,0.04,0,Wunderground v.1.15,2013-04-20 04:55:00,
2013-04-20 01:05:00,64.2,63.0,29.80,SW,229,1.0,4.0,96,0.06,,,0.04,0,Wunderground v.1.15,2013-04-20 05:05:00,
2013-04-20 01:10:00,64.2,62.7,29.81,WNW,294,3.0,12.0,95,2.21,,,0.10,0,Wunderground v.1.15,2013-04-20 05:10:00,
2013-04-20 01:15:00,63.3,60.6,29.80,SW,223,8.0,12.0,91,0.15,,,0.11,0,Wunderground v.1.15,2013-04-20 05:15:00,
2013-04-20 01:20:00,63.1,60.4,29.81,WSW,238,11.0,11.0,91,0.11,,,0.12,0,Wunderground v.1.15,2013-04-20 05:20:00,
2013-04-20 01:30:00,59.7,54.5,29.84,NW,320,12.0,15.0,83,0.20,,,0.15,0,Wunderground v.1.15,2013-04-20 05:30:00,
2013-04-20 01:35:00,57.9,54.4,29.86,NW,316,13.0,15.0,88,0.10,,,0.16,0,Wunderground v.1.15,2013-04-20 05:35:00,
2013-04-20 01:40:00,57.3,54.4,29.86,NW,310,11.0,11.0,90,0.10,,,0.16,0,Wunderground v.1.15,2013-04-20 05:40:00,
2013-04-20 01:45:00,56.9,54.0,29.85,NW,305,9.0,12.0,90,0.07,,,0.17,0,Wunderground v.1.15,2013-04-20 05:45:00,
2013-04-20 01:50:00,56.5,53.0,29.85,NW,312,11.0,12.0,88,0.09,,,0.18,0,Wunderground v.1.15,2013-04-20 05:50:00,
2013-04-20 02:00:00,55.7,51.3,29.86,NW,308,14.0,14.0,85,0.06,,,0.19,0,Wunderground v.1.15,2013-04-20 06:00:00,
2013-04-20 02:05:00,55.1,51.0,29.85,NW,325,12.0,14.0,86,0.06,,,0.19,0,Wunderground v.1.15,2013-04-20 06:05:00,
2013-04-20 02:15:00,54.7,50.6,29.87,NW,309,8.0,12.0,86,0.04,,,0.19,0,Wunderground v.1.15,2013-04-20 06:15:00,
2013-04-20 02:20:00,54.4,50.3,29.87,WNW,297,8.0,8.0,86,0.00,,,0.20,0,Wunderground v.1.15,2013-04-20 06:20:00,
2013-04-20 02:25:00,54.2,50.1,29.88,WNW,298,7.0,12.0,86,0.00,,,0.20,0,Wunderground v.1.15,2013-04-20 06:25:00,
2013-04-20 02:30:00,54.1,50.3,29.87,NW,311,7.0,12.0,87,0.00,,,0.20,0,Wunderground v.1.15,2013-04-20 06:30:00,
2013-04-20 02:40:00,53.9,49.5,29.88,WNW,295,6.0,12.0,85,0.00,,,0.20,0,Wunderground v.1.15,2013-04-20 06:40:00,
2013-04-20 02:45:00,53.8,49.4,29.88,NW,312,6.0,12.0,85,0.00,,,0.20,0,Wunderground v.1.15,2013-04-20 06:45:00,
2013-04-20 02:50:00,53.8,49.7,29.88,NW,319,7.0,12.0,86,0.00,,,0.20,0,Wunderground v.1.15,2013-04-20 06:50:00,
2013-04-20 02:55:00,53.9,49.5,29.87,NW,313,7.0,12.0,85,0.00,,,0.20,0,Wunderground v.1.15,2013-04-20 06:55:00,
2013-04-20 03:00:00,54.0,49.3,29.88,NW,309,7.0,12.0,84,0.00,,,0.20,0,Wunderground v.1.15,2013-04-20 07:00:00,
2013-04-20 03:10:00,53.6,48.2,29.88,WNW,294,7.0,12.0,82,0.00,,,0.20,0,Wunderground v.1.15,2013-04-20 07:10:00,
2013-04-20 03:15:00,53.6,47.9,29.88,WNW,298,7.0,12.0,81,0.00,,,0.20,0,Wunderground v.1.15,2013-04-20 07:15:00,
2013-04-20 03:20:00,53.5,47.8,29.89,WNW,301,7.0,12.0,81,0.00,,,0.20,0,Wunderground v.1.15,2013-04-20 07:20:00,
2013-04-20 03:25:00,53.5,47.1,29.89,WNW,303,8.0,12.0,79,0.00,,,0.20,0,Wunderground v.1.15,2013-04-20 07:25:00,
2013-04-20 03:30:00,53.5,47.1,29.90,NW,308,8.0,12.0,79,0.00,,,0.20,0,Wunderground v.1.15,2013-04-20 07:30:00,
2013-04-20 03:40:00,53.3,47.3,29.91,West,281,6.0,12.0,80,0.00,,,0.20,0,Wunderground v.1.15,2013-04-20 07:40:00,
2013-04-20 03:45:00,53.1,47.1,29.92,WNW,293,5.0,12.0,80,0.00,,,0.20,0,Wunderground v.1.15,2013-04-20 07:45:00,
2013-04-20 03:50:00,53.2,46.9,29.91,WNW,293,6.0,6.0,79,0.00,,,0.20,0,Wunderground v.1.15,2013-04-20 07:50:00,
2013-04-20 03:55:00,53.3,46.3,29.91,NW,308,7.0,7.0,77,0.00,,,0.20,0,Wunderground v.1.15,2013-04-20 07:55:00,
2013-04-20 04:05:00,53.4,45.3,29.93,WNW,294,8.0,12.0,74,0.00,,,0.20,0,Wunderground v.1.15,2013-04-20 08:05:00,
2013-04-20 04:10:00,53.4,45.7,29.93,NW,306,8.0,8.0,75,0.00,,,0.20,0,Wunderground v.1.15,2013-04-20 08:10:00,
2013-04-20 04:15:00,53.4,44.6,29.93,NW,308,8.0,11.0,72,0.00,,,0.20,0,Wunderground v.1.15,2013-04-20 08:15:00,
2013-04-20 04:20:00,53.5,45.4,29.92,NW,323,9.0,12.0,74,0.00,,,0.20,0,Wunderground v.1.15,2013-04-20 08:20:00,
2013-04-20 04:25:00,53.5,45.8,29.93,NW,313,10.0,12.0,75,0.00,,,0.20,0,Wunderground v.1.15,2013-04-20 08:25:00,
2013-04-20 04:35:00,53.4,46.0,29.93,NW,311,10.0,12.0,76,0.00,,,0.20,0,Wunderground v.1.15,2013-04-20 08:35:00,
2013-04-20 04:40:00,53.4,45.0,29.93,NW,320,10.0,12.0,73,0.00,,,0.20,0,Wunderground v.1.15,2013-04-20 08:40:00,
2013-04-20 04:45:00,53.4,46.4,29.94,NW,318,10.0,12.0,77,0.00,,,0.20,0,Wunderground v.1.15,2013-04-20 08:45:00,
2013-04-20 04:50:00,53.1,45.4,29.94,NW,325,8.0,12.0,75,0.00,,,0.20,0,Wunderground v.1.15,2013-04-20 08:50:00,
2013-04-20 05:00:00,52.7,45.3,29.94,NW,324,7.0,12.0,76,0.00,,,0.20,0,Wunderground v.1.15,2013-04-20 09:00:00,
2013-04-20 05:05:00,52.7,45.0,29.94,NW,313,7.0,12.0,75,0.00,,,0.20,0,Wunderground v.1.15,2013-04-20 09:05:00,
2013-04-20 05:10:00,52.8,45.4,29.95,NW,323,7.0,12.0,76,0.00,,,0.20,0,Wunderground v.1.15,2013-04-20 09:10:00,
2013-04-20 05:15:00,52.9,45.2,29.95,NW,313,8.0,12.0,75,0.00,,,0.20,0,Wunderground v.1.15,2013-04-20 09:15:00,
2013-04-20 05:20:00,52.8,44.7,29.95,NW,317,9.0,12.0,74,0.00,,,0.20,0,Wunderground v.1.15,2013-04-20 09:20:00,
2013-04-20 05:30:00,52.7,45.3,29.96,NNW,330,9.0,12.0,76,0.00,,,0.20,0,Wunderground v.1.15,2013-04-20 09:30:00,
2013-04-20 05:35:00,52.6,44.2,29.96,NNW,335,10.0,12.0,73,0.00,,,0.20,0,Wunderground v.1.15,2013-04-20 09:35:00,
2013-04-20 05:40:00,52.6,44.5,29.96,NW,315,9.0,9.0,74,0.00,,,0.20,0,Wunderground v.1.15,2013-04-20 09:40:00,
2013-04-20 05:45:00,52.4,42.9,29.96,NW,323,8.0,11.0,70,0.00,,,0.20,0,Wunderground v.1.15,2013-04-20 09:45:00,
2013-04-20 05:50:00,52.2,42.7,29.97,NNW,329,8.0,14.0,70,0.00,,,0.20,0,Wunderground v.1.15,2013-04-20 09:50:00,
2013-04-20 06:00:00,52.1,42.6,29.97,North,5,7.0,7.0,70,0.00,,,0.20,0,Wunderground v.1.15,2013-04-20 10:00:00,
2013-04-20 06:05:00,51.9,42.4,29.97,NW,312,6.0,12.0,70,0.00,,,0.20,0,Wunderground v.1.15,2013-04-20 10:05:00,
2013-04-20 06:10:00,51.8,43.1,29.98,NW,309,6.0,12.0,72,0.00,,,0.20,0,Wunderground v.1.15,2013-04-20 10:10:00,
2013-04-20 06:15:00,51.6,42.5,29.98,NNW,328,6.0,12.0,71,0.00,,,0.20,0,Wunderground v.1.15,2013-04-20 10:15:00,
2013-04-20 06:25:00,51.3,42.6,29.99,NE,46,4.0,12.0,72,0.00,,,0.20,0,Wunderground v.1.15,2013-04-20 10:25:00,
2013-04-20 06:30:00,51.0,41.6,29.99,NW,314,3.0,3.0,70,0.00,,,0.20,0,Wunderground v.1.15,2013-04-20 10:30:00,
2013-04-20 06:35:00,50.8,41.7,30.00,North,5,2.0,12.0,71,0.00,,,0.20,0,Wunderground v.1.15,2013-04-20 10:35:00,
2013-04-20 06:40:00,50.6,41.9,30.01,NW,315,1.0,1.0,72,0.00,,,0.20,0,Wunderground v.1.15,2013-04-20 10:40:00,
2013-04-20 06:50:00,50.4,42.1,30.01,NW,313,2.0,2.0,73,0.00,,,0.20,9,Wunderground v.1.15,2013-04-20 10:50:00,
2013-04-20 06:55:00,50.4,42.4,30.02,NNW,342,3.0,3.0,74,0.00,,,0.20,12,Wunderground v.1.15,2013-04-20 10:55:00,
2013-04-20 07:00:00,50.2,42.2,30.02,NW,313,2.0,2.0,74,0.00,,,0.20,14,Wunderground v.1.15,2013-04-20 11:00:00,
2013-04-20 07:05:00,50.1,42.1,30.02,NE,42,1.0,12.0,74,0.00,,,0.20,16,Wunderground v.1.15,2013-04-20 11:05:00,
2013-04-20 07:15:00,50.0,41.7,30.02,North,350,0.0,12.0,73,0.00,,,0.20,23,Wunderground v.1.15,2013-04-20 11:15:00,
2013-04-20 07:20:00,49.8,41.5,30.02,NNW,346,0.0,12.0,73,0.00,,,0.20,26,Wunderground v.1.15,2013-04-20 11:20:00,
2013-04-20 07:25:00,49.7,41.7,30.03,NNW,333,0.0,12.0,74,0.00,,,0.20,28,Wunderground v.1.15,2013-04-20 11:25:00,
2013-04-20 07:30:00,49.7,42.1,30.03,WNW,300,0.0,12.0,75,0.00,,,0.20,32,Wunderground v.1.15,2013-04-20 11:30:00,
2013-04-20 07:40:00,49.6,42.0,30.03,NW,317,1.0,12.0,75,0.00,,,0.20,46,Wunderground v.1.15,2013-04-20 11:40:00,
2013-04-20 07:45:00,49.6,42.0,30.04,North,360,2.0,12.0,75,0.00,,,0.20,51,Wunderground v.1.15,2013-04-20 11:45:00,
2013-04-20 07:50:00,49.7,41.7,30.04,NW,318,3.0,12.0,74,0.00,,,0.20,56,Wunderground v.1.15,2013-04-20 11:50:00,
2013-04-20 07:55:00,49.7,42.4,30.05,NNW,329,3.0,12.0,76,0.00,,,0.20,60,Wunderground v.1.15,2013-04-20 11:55:00,
2013-04-20 08:00:00,49.9,43.0,30.06,NNW,346,4.0,4.0,77,0.00,,,0.20,69,Wunderground v.1.15,2013-04-20 12:00:00,
2013-04-20 08:10:00,50.4,42.4,30.06,NNW,327,6.0,12.0,74,0.00,,,0.20,88,Wunderground v.1.15,2013-04-20 12:10:00,
2013-04-20 08:15:00,50.3,42.0,30.06,NW,326,5.0,12.0,73,0.00,,,0.20,91,Wunderground v.1.15,2013-04-20 12:15:00,
2013-04-20 08:20:00,50.3,42.7,30.07,NW,315,5.0,12.0,75,0.00,,,0.20,102,Wunderground v.1.15,2013-04-20 12:20:00,
2013-04-20 08:25:00,50.3,42.3,30.07,NW,324,6.0,12.0,74,0.00,,,0.20,113,Wunderground v.1.15,2013-04-20 12:25:00,
2013-04-20 08:35:00,50.4,41.3,30.07,NNW,335,8.0,12.0,71,0.00,,,0.20,113,Wunderground v.1.15,2013-04-20 12:35:00,
2013-04-20 08:40:00,50.4,41.7,30.07,NW,319,8.0,12.0,72,0.00,,,0.20,105,Wunderground v.1.15,2013-04-20 12:40:00,
2013-04-20 08:45:00,50.3,42.0,30.08,NW,315,7.0,12.0,73,0.00,,,0.20,118,Wunderground v.1.15,2013-04-20 12:45:00,
2013-04-20 08:50:00,50.3,40.9,30.08,NW,317,8.0,8.0,70,0.00,,,0.20,135,Wunderground v.1.15,2013-04-20 12:50:00,
2013-04-20 08:55:00,50.2,40.8,30.08,North,355,7.0,12.0,70,0.00,,,0.20,148,Wunderground v.1.15,2013-04-20 12:55:00,
2013-04-20 09:05:00,50.2,41.2,30.08,NW,311,8.0,8.0,71,0.00,,,0.20,171,Wunderground v.1.15,2013-04-20 13:05:00,
2013-04-20 09:10:00,50.3,40.9,30.09,NNW,330,7.0,12.0,70,0.00,,,0.20,130,Wunderground v.1.15,2013-04-20 13:10:00,
2013-04-20 09:15:00,50.3,40.9,30.09,NW,304,7.0,12.0,70,0.00,,,0.20,142,Wunderground v.1.15,2013-04-20 13:15:00,
2013-04-20 09:20:00,50.3,40.5,30.09,NW,321,8.0,12.0,69,0.00,,,0.20,151,Wunderground v.1.15,2013-04-20 13:20:00,
2013-04-20 09:25:00,50.3,41.3,30.09,NNW,327,8.0,12.0,71,0.00,,,0.20,169,Wunderground v.1.15,2013-04-20 13:25:00,
2013-04-20 09:35:00,50.2,40.8,30.10,NNW,344,8.0,12.0,70,0.00,,,0.20,156,Wunderground v.1.15,2013-04-20 13:35:00,
2013-04-20 09:40:00,50.1,39.9,30.10,NW,307,7.0,7.0,68,0.00,,,0.20,192,Wunderground v.1.15,2013-04-20 13:40:00,
2013-04-20 09:45:00,50.0,39.5,30.10,NNW,333,5.0,12.0,67,0.00,,,0.20,167,Wunderground v.1.15,2013-04-20 13:45:00,
2013-04-20 09:55:00,50.0,39.5,30.11,NW,324,6.0,12.0,67,0.00,,,0.20,151,Wunderground v.1.15,2013-04-20 13:55:00,
2013-04-20 10:00:00,50.0,40.2,30.11,NNW,332,6.0,12.0,69,0.00,,,0.20,169,Wunderground v.1.15,2013-04-20 14:00:00,
2013-04-20 10:05:00,49.9,38.6,30.11,ENE,63,6.0,12.0,65,0.00,,,0.20,197,Wunderground v.1.15,2013-04-20 14:05:00,
2013-04-20 10:10:00,49.9,39.0,30.11,NW,313,7.0,12.0,66,0.00,,,0.20,137,Wunderground v.1.15,2013-04-20 14:10:00,
2013-04-20 10:15:00,50.1,39.9,30.12,NW,306,7.0,12.0,68,0.00,,,0.20,246,Wunderground v.1.15,2013-04-20 14:15:00,
2013-04-20 10:25:00,50.2,38.5,30.12,NNW,327,4.0,12.0,64,0.00,,,0.20,524,Wunderground v.1.15,2013-04-20 14:25:00,
2013-04-20 10:30:00,50.4,38.7,30.12,NW,325,4.0,12.0,64,0.00,,,0.20,749,Wunderground v.1.15,2013-04-20 14:30:00,
2013-04-20 10:35:00,50.6,38.1,30.12,NW,318,5.0,12.0,62,0.00,,,0.20,807,Wunderground v.1.15,2013-04-20 14:35:00,
2013-04-20 10:40:00,50.9,38.3,30.12,NW,316,7.0,12.0,62,0.00,,,0.20,810,Wunderground v.1.15,2013-04-20 14:40:00,
2013-04-20 10:45:00,51.2,38.2,30.13,NW,317,9.0,12.0,61,0.00,,,0.20,819,Wunderground v.1.15,2013-04-20 14:45:00,
2013-04-20 10:55:00,51.9,38.9,30.13,NW,322,8.0,12.0,61,0.00,,,0.20,786,Wunderground v.1.15,2013-04-20 14:55:00,
2013-04-20 11:00:00,52.2,37.4,30.14,North,355,8.0,8.0,57,0.00,,,0.20,803,Wunderground v.1.15,2013-04-20 15:00:00,
2013-04-20 11:05:00,52.5,36.3,30.14,WNW,296,7.0,12.0,54,0.00,,,0.20,791,Wunderground v.1.15,2013-04-20 15:05:00,
2013-04-20 11:10:00,52.8,37.5,30.13,NNW,329,6.0,12.0,56,0.00,,,0.20,710,Wunderground v.1.15,2013-04-20 15:10:00,
2013-04-20 11:15:00,52.9,39.8,30.13,NW,323,7.0,12.0,61,0.00,,,0.20,654,Wunderground v.1.15,2013-04-20 15:15:00,
2013-04-20 11:25:00,53.0,36.8,30.13,WNW,298,8.0,12.0,54,0.00,,,0.20,432,Wunderground v.1.15,2013-04-20 15:25:00,
2013-04-20 11:30:00,53.2,38.8,30.13,NW,313,6.0,12.0,58,0.00,,,0.20,691,Wunderground v.1.15,2013-04-20 15:30:00,
2013-04-20 11:35:00,53.3,35.1,30.13,NNW,329,7.0,12.0,50,0.00,,,0.20,691,Wunderground v.1.15,2013-04-20 15:35:00,
2013-04-20 11:40:00,53.3,36.1,30.13,North,355,8.0,8.0,52,0.00,,,0.20,543,Wunderground v.1.15,2013-04-20 15:40:00,
2013-04-20 11:50:00,53.6,37.3,30.13,NNW,329,7.0,12.0,54,0.00,,,0.20,401,Wunderground v.1.15,2013-04-20 15:50:00,
2013-04-20 11:55:00,53.6,36.9,30.13,NW,317,8.0,12.0,53,0.00,,,0.20,872,Wunderground v.1.15,2013-04-20 15:55:00,
2013-04-20 12:00:00,53.5,36.8,30.13,NW,324,7.0,7.0,53,0.00,,,0.20,872,Wunderground v.1.15,2013-04-20 16:00:00,
2013-04-20 12:05:00,53.6,37.3,30.13,NW,314,7.0,11.0,54,0.00,,,0.20,958,Wunderground v.1.15,2013-04-20 16:05:00,
2013-04-20 12:15:00,54.0,38.6,30.13,NW,325,6.0,9.0,56,0.00,,,0.20,816,Wunderground v.1.15,2013-04-20 16:15:00,
2013-04-20 12:20:00,54.1,36.4,30.12,WNW,292,6.0,6.0,51,0.00,,,0.20,1030,Wunderground v.1.15,2013-04-20 16:20:00,
2013-04-20 12:25:00,54.3,36.5,30.12,NNW,327,6.0,10.0,51,0.00,,,0.20,817,Wunderground v.1.15,2013-04-20 16:25:00,
2013-04-20 12:30:00,54.3,36.5,30.12,NW,310,8.0,8.0,51,0.00,,,0.20,909,Wunderground v.1.15,2013-04-20 16:30:00,
2013-04-20 12:35:00,54.5,37.7,30.13,NNW,329,9.0,13.0,53,0.00,,,0.20,1071,Wunderground v.1.15,2013-04-20 16:35:00,
2013-04-20 12:45:00,54.6,36.8,30.12,NW,306,7.0,10.0,51,0.00,,,0.20,745,Wunderground v.1.15,2013-04-20 16:45:00,
2013-04-20 12:50:00,54.8,34.4,30.12,NNW,334,8.0,8.0,46,0.00,,,0.20,745,Wunderground v.1.15,2013-04-20 16:50:00,
2013-04-20 12:55:00,55.3,33.2,30.12,NW,319,8.0,12.0,43,0.00,,,0.20,643,Wunderground v.1.15,2013-04-20 16:55:00,
2013-04-20 13:00:00,55.1,36.8,30.12,NW,304,6.0,6.0,50,0.00,,,0.20,671,Wunderground v.1.15,2013-04-20 17:00:00,
2013-04-20 13:05:00,55.0,36.7,30.12,NW,313,6.0,12.0,50,0.00,,,0.20,728,Wunderground v.1.15,2013-04-20 17:05:00,
2013-04-20 13:15:00,55.7,34.7,30.12,NNE,33,4.0,12.0,45,0.00,,,0.20,979,Wunderground v.1.15,2013-04-20 17:15:00,
2013-04-20 13:20:00,55.7,33.5,30.12,NNW,345,4.0,4.0,43,0.00,,,0.20,729,Wunderground v.1.15,2013-04-20 17:20:00,
2013-04-20 13:25:00,55.6,37.7,30.12,NW,306,2.0,12.0,51,0.00,,,0.20,729,Wunderground v.1.15,2013-04-20 17:25:00,
2013-04-20 13:30:00,55.6,37.7,30.12,NW,311,4.0,12.0,51,0.00,,,0.20,860,Wunderground v.1.15,2013-04-20 17:30:00,
2013-04-20 13:35:00,55.7,37.8,30.12,WNW,283,5.0,12.0,51,0.00,,,0.20,911,Wunderground v.1.15,2013-04-20 17:35:00,
2013-04-20 13:45:00,56.0,39.6,30.12,NNW,337,3.0,12.0,54,0.00,,,0.20,1002,Wunderground v.1.15,2013-04-20 17:45:00,
2013-04-20 13:50:00,56.5,36.0,30.12,NW,306,5.0,12.0,46,0.00,,,0.20,983,Wunderground v.1.15,2013-04-20 17:50:00,
2013-04-20 13:55:00,56.8,36.2,30.12,NNE,15,6.0,12.0,46,0.00,,,0.20,953,Wunderground v.1.15,2013-04-20 17:55:00,
2013-04-20 14:00:00,57.1,38.1,30.12,NW,309,5.0,5.0,49,0.00,,,0.20,793,Wunderground v.1.15,2013-04-20 18:00:00,
2013-04-20 14:10:00,56.7,38.3,30.11,NW,321,2.0,12.0,50,0.00,,,0.20,784,Wunderground v.1.15,2013-04-20 18:10:00,
2013-04-20 14:15:00,56.6,37.6,30.11,NW,304,3.0,12.0,49,0.00,,,0.20,763,Wunderground v.1.15,2013-04-20 18:15:00,
2013-04-20 14:20:00,56.7,39.7,30.12,NW,323,5.0,12.0,53,0.00,,,0.20,872,Wunderground v.1.15,2013-04-20 18:20:00,
2013-04-20 14:25:00,56.9,36.3,30.12,NNW,331,6.0,12.0,46,0.00,,,0.20,858,Wunderground v.1.15,2013-04-20 18:25:00,
2013-04-20 14:35:00,57.2,36.6,30.12,NNW,341,5.0,12.0,46,0.00,,,0.20,895,Wunderground v.1.15,2013-04-20 18:35:00,
2013-04-20 14:40:00,57.6,36.4,30.12,NNW,338,4.0,4.0,45,0.00,,,0.20,698,Wunderground v.1.15,2013-04-20 18:40:00,
2013-04-20 14:45:00,57.8,37.7,30.12,NNW,339,3.0,12.0,47,0.00,,,0.20,904,Wunderground v.1.15,2013-04-20 18:45:00,
2013-04-20 14:50:00,57.8,36.0,30.12,NNW,339,2.0,2.0,44,0.00,,,0.20,972,Wunderground v.1.15,2013-04-20 18:50:00,
2013-04-20 14:55:00,57.9,39.9,30.12,NW,311,1.0,5.0,51,0.00,,,0.20,693,Wunderground v.1.15,2013-04-20 18:55:00,
2013-04-20 15:00:00,57.6,42.0,30.11,NW,308,4.0,12.0,56,0.00,,,0.20,671,Wunderground v.1.15,2013-04-20 19:00:00,
2013-04-20 15:10:00,57.9,38.8,30.11,WNW,300,4.0,12.0,49,0.00,,,0.20,909,Wunderground v.1.15,2013-04-20 19:10:00,
2013-04-20 15:15:00,57.8,39.3,30.11,NW,324,5.0,12.0,50,0.00,,,0.20,800,Wunderground v.1.15,2013-04-20 19:15:00,
2013-04-20 15:20:00,58.0,35.6,30.10,NW,310,5.0,5.0,43,0.00,,,0.20,807,Wunderground v.1.15,2013-04-20 19:20:00,
2013-04-20 15:25:00,58.4,37.1,30.11,West,269,3.0,12.0,45,0.00,,,0.20,745,Wunderground v.1.15,2013-04-20 19:25:00,
2013-04-20 15:30:00,58.6,39.5,30.11,NW,325,2.0,12.0,49,0.00,,,0.20,853,Wunderground v.1.15,2013-04-20 19:30:00,
2013-04-20 15:35:00,58.9,39.2,30.11,NW,317,3.0,12.0,48,0.00,,,0.20,853,Wunderground v.1.15,2013-04-20 19:35:00,
2013-04-20 15:45:00,58.6,38.4,30.10,NW,304,4.0,12.0,47,0.00,,,0.20,780,Wunderground v.1.15,2013-04-20 19:45:00,
2013-04-20 15:50:00,59.3,35.6,30.10,NW,321,2.0,12.0,41,0.00,,,0.20,805,Wunderground v.1.15,2013-04-20 19:50:00,
2013-04-20 15:55:00,59.1,38.9,30.10,NW,309,2.0,12.0,47,0.00,,,0.20,807,Wunderground v.1.15,2013-04-20 19:55:00,
2013-04-20 16:00:00,59.5,39.2,30.10,NNW,336,2.0,12.0,47,0.00,,,0.20,773,Wunderground v.1.15,2013-04-20 20:00:00,
2013-04-20 16:05:00,59.4,40.2,30.10,NW,324,3.0,12.0,49,0.00,,,0.20,768,Wunderground v.1.15,2013-04-20 20:05:00,
2013-04-20 16:15:00,60.1,37.5,30.10,NNE,16,3.0,12.0,43,0.00,,,0.20,733,Wunderground v.1.15,2013-04-20 20:15:00,
2013-04-20 16:20:00,60.4,35.9,30.10,NNW,340,3.0,12.0,40,0.00,,,0.20,687,Wunderground v.1.15,2013-04-20 20:20:00,
2013-04-20 16:25:00,60.4,35.3,30.10,NW,316,2.0,12.0,39,0.00,,,0.20,721,Wunderground v.1.15,2013-04-20 20:25:00,
2013-04-20 16:35:00,60.1,39.8,30.10,NW,317,4.0,12.0,47,0.00,,,0.20,689,Wunderground v.1.15,2013-04-20 20:35:00,
2013-04-20 16:40:00,59.9,36.1,30.11,NNW,331,5.0,5.0,41,0.00,,,0.20,654,Wunderground v.1.15,2013-04-20 20:40:00,
2013-04-20 16:45:00,60.2,40.4,30.10,NW,325,4.0,12.0,48,0.00,,,0.20,578,Wunderground v.1.15,2013-04-20 20:45:00,
2013-04-20 16:50:00,60.3,37.1,30.11,NW,320,4.0,12.0,42,0.00,,,0.20,635,Wunderground v.1.15,2013-04-20 20:50:00,
2013-04-20 17:00:00,60.1,42.4,30.11,NW,305,4.0,4.0,52,0.00,,,0.20,534,Wunderground v.1.15,2013-04-20 21:00:00,
2013-04-20 17:05:00,60.3,39.4,30.11,NW,305,1.0,12.0,46,0.00,,,0.20,599,Wunderground v.1.15,2013-04-20 21:05:00,
2013-04-20 17:10:00,60.4,41.1,30.11,NW,305,1.0,1.0,49,0.00,,,0.20,550,Wunderground v.1.15,2013-04-20 21:10:00,
2013-04-20 17:15:00,61.0,42.7,30.11,NW,305,1.0,12.0,51,0.00,,,0.20,455,Wunderground v.1.15,2013-04-20 21:15:00,
2013-04-20 17:20:00,61.2,38.5,30.11,NW,305,1.0,12.0,43,0.00,,,0.20,540,Wunderground v.1.15,2013-04-20 21:20:00,
2013-04-20 17:30:00,60.5,41.8,30.12,WNW,303,2.0,12.0,50,0.00,,,0.20,506,Wunderground v.1.15,2013-04-20 21:30:00,
2013-04-20 17:35:00,60.3,40.5,30.11,WNW,298,2.0,12.0,48,0.00,,,0.20,510,Wunderground v.1.15,2013-04-20 21:35:00,
2013-04-20 17:40:00,60.3,40.5,30.12,WNW,303,2.0,2.0,48,0.00,,,0.20,468,Wunderground v.1.15,2013-04-20 21:40:00,
2013-04-20 17:45:00,60.6,43.9,30.12,WNW,302,2.0,12.0,54,0.00,,,0.20,468,Wunderground v.1.15,2013-04-20 21:45:00,
2013-04-20 17:50:00,61.0,43.7,30.12,WNW,300,1.0,12.0,53,0.00,,,0.20,434,Wunderground v.1.15,2013-04-20 21:50:00,
2013-04-20 18:00:00,60.9,37.0,30.12,WNW,292,2.0,12.0,41,0.00,,,0.20,436,Wunderground v.1.15,2013-04-20 22:00:00,
2013-04-20 18:05:00,61.1,40.1,30.12,NNW,327,2.0,12.0,46,0.00,,,0.20,406,Wunderground v.1.15,2013-04-20 22:05:00,
2013-04-20 18:10:00,61.2,40.8,30.13,WNW,289,1.0,1.0,47,0.00,,,0.20,376,Wunderground v.1.15,2013-04-20 22:10:00,
2013-04-20 18:15:00,61.8,37.2,30.13,NNW,335,2.0,2.0,40,0.00,,,0.20,360,Wunderground v.1.15,2013-04-20 22:15:00,
2013-04-20 18:25:00,61.7,39.6,30.14,WNW,300,0.0,12.0,44,0.00,,,0.20,339,Wunderground v.1.15,2013-04-20 22:25:00,
2013-04-20 18:30:00,61.6,40.6,30.14,WNW,300,1.0,12.0,46,0.00,,,0.20,322,Wunderground v.1.15,2013-04-20 22:30:00,
2013-04-20 18:35:00,61.1,41.8,30.14,NW,312,2.0,12.0,49,0.00,,,0.20,295,Wunderground v.1.15,2013-04-20 22:35:00,
2013-04-20 18:40:00,61.2,40.2,30.14,NW,315,2.0,2.0,46,0.00,,,0.20,272,Wunderground v.1.15,2013-04-20 22:40:00,
2013-04-20 18:50:00,61.3,40.3,30.15,NNW,327,3.0,12.0,46,0.00,,,0.20,244,Wunderground v.1.15,2013-04-20 22:50:00,
2013-04-20 18:55:00,61.1,42.8,30.15,NW,325,3.0,12.0,51,0.00,,,0.20,223,Wunderground v.1.15,2013-04-20 22:55:00,
2013-04-20 19:00:00,60.9,44.1,30.16,NW,325,2.0,12.0,54,0.00,,,0.20,195,Wunderground v.1.15,2013-04-20 23:00:00,
2013-04-20 19:05:00,60.6,44.8,30.16,NW,315,2.0,12.0,56,0.00,,,0.20,169,Wunderground v.1.15,2013-04-20 23:05:00,
2013-04-20 19:10:00,60.4,44.6,30.16,NW,317,3.0,12.0,56,0.00,,,0.20,141,Wunderground v.1.15,2013-04-20 23:10:00,
2013-04-20 19:20:00,60.5,42.8,30.16,NW,317,1.0,1.0,52,0.00,,,0.20,111,Wunderground v.1.15,2013-04-20 23:20:00,
2013-04-20 19:25:00,60.6,41.3,30.16,NW,317,1.0,12.0,49,0.00,,,0.20,79,Wunderground v.1.15,2013-04-20 23:25:00,
2013-04-20 19:30:00,60.7,42.5,30.16,NW,317,1.0,1.0,51,0.00,,,0.20,63,Wunderground v.1.15,2013-04-20 23:30:00,
2013-04-20 19:35:00,60.6,41.3,30.16,NW,317,0.0,12.0,49,0.00,,,0.20,53,Wunderground v.1.15,2013-04-20 23:35:00,
2013-04-20 19:40:00,60.4,41.7,30.16,NW,317,0.0,12.0,50,0.00,,,0.20,35,Wunderground v.1.15,2013-04-20 23:40:00,
2013-04-20 19:50:00,59.0,42.4,30.16,NW,319,0.0,12.0,54,0.00,,,0.20,5,Wunderground v.1.15,2013-04-20 23:50:00,
2013-04-20 19:55:00,58.1,42.5,30.16,NW,319,0.0,12.0,56,0.00,,,0.20,0,Wunderground v.1.15,2013-04-20 23:55:00,
2013-04-20 20:00:00,57.2,43.0,30.16,NW,319,0.0,12.0,59,0.00,,,0.20,0,Wunderground v.1.15,2013-04-21 00:00:00,
2013-04-20 20:05:00,56.6,41.5,30.17,NW,319,0.0,12.0,57,0.00,,,0.20,0,Wunderground v.1.15,2013-04-21 00:05:00,
2013-04-20 20:10:00,56.3,43.0,30.18,NW,319,0.0,12.0,61,0.00,,,0.20,0,Wunderground v.1.15,2013-04-21 00:10:00,
2013-04-20 20:20:00,55.3,41.2,30.18,NW,319,0.0,12.0,59,0.00,,,0.20,0,Wunderground v.1.15,2013-04-21 00:20:00,
2013-04-20 20:25:00,54.8,41.6,30.19,NW,319,0.0,12.0,61,0.00,,,0.20,0,Wunderground v.1.15,2013-04-21 00:25:00,
2013-04-20 20:30:00,54.2,41.9,30.20,NW,319,0.0,12.0,63,0.00,,,0.20,0,Wunderground v.1.15,2013-04-21 00:30:00,
2013-04-20 20:35:00,53.7,41.8,30.20,NW,319,0.0,12.0,64,0.00,,,0.20,0,Wunderground v.1.15,2013-04-21 00:35:00,
2013-04-20 20:45:00,53.2,42.5,30.21,NW,319,0.0,12.0,67,0.00,,,0.20,0,Wunderground v.1.15,2013-04-21 00:45:00,
2013-04-20 20:50:00,53.0,42.7,30.21,NW,319,0.0,12.0,68,0.00,,,0.20,0,Wunderground v.1.15,2013-04-21 00:50:00,
2013-04-20 20:55:00,52.9,44.1,30.22,NW,319,0.0,12.0,72,0.00,,,0.20,0,Wunderground v.1.15,2013-04-21 00:55:00,
2013-04-20 21:00:00,52.6,43.5,30.22,NW,319,0.0,12.0,71,0.00,,,0.20,0,Wunderground v.1.15,2013-04-21 01:00:00,
2013-04-20 21:10:00,52.1,43.0,30.23,NW,319,0.0,12.0,71,0.00,,,0.20,0,Wunderground v.1.15,2013-04-21 01:10:00,
2013-04-20 21:15:00,51.8,43.1,30.24,NW,319,0.0,12.0,72,0.00,,,0.20,0,Wunderground v.1.15,2013-04-21 01:15:00,
2013-04-20 21:20:00,51.4,42.7,30.24,NW,319,0.0,12.0,72,0.00,,,0.20,0,Wunderground v.1.15,2013-04-21 01:20:00,
2013-04-20 21:25:00,51.1,43.1,30.24,NW,319,0.0,12.0,74,0.00,,,0.20,0,Wunderground v.1.15,2013-04-21 01:25:00,
2013-04-20 21:30:00,50.8,43.5,30.24,NW,319,0.0,12.0,76,0.00,,,0.20,0,Wunderground v.1.15,2013-04-21 01:30:00,
2013-04-20 21:40:00,50.3,44.7,30.24,NW,319,0.0,12.0,81,0.00,,,0.20,0,Wunderground v.1.15,2013-04-21 01:40:00,
2013-04-20 21:45:00,50.1,44.8,30.24,NW,319,0.0,12.0,82,0.00,,,0.20,0,Wunderground v.1.15,2013-04-21 01:45:00,
2013-04-20 21:50:00,49.9,44.9,30.25,NW,319,0.0,12.0,83,0.00,,,0.20,0,Wunderground v.1.15,2013-04-21 01:50:00,
2013-04-20 22:00:00,49.5,44.9,30.24,NW,319,0.0,12.0,84,0.00,,,0.20,0,Wunderground v.1.15,2013-04-21 02:00:00,
2013-04-20 22:05:00,49.2,44.9,30.24,NW,319,0.0,12.0,85,0.00,,,0.20,0,Wunderground v.1.15,2013-04-21 02:05:00,
2013-04-20 22:10:00,49.0,45.0,30.24,NW,319,0.0,12.0,86,0.00,,,0.20,0,Wunderground v.1.15,2013-04-21 02:10:00,
2013-04-20 22:15:00,48.8,45.1,30.24,NW,319,0.0,12.0,87,0.00,,,0.20,0,Wunderground v.1.15,2013-04-21 02:15:00,
2013-04-20 22:25:00,48.5,45.1,30.25,NW,319,0.0,12.0,88,0.00,,,0.20,0,Wunderground v.1.15,2013-04-21 02:25:00,
2013-04-20 22:30:00,48.5,45.4,30.25,NW,319,0.0,12.0,89,0.00,,,0.20,0,Wunderground v.1.15,2013-04-21 02:30:00,
2013-04-20 22:35:00,48.4,45.3,30.25,NW,319,0.0,12.0,89,0.00,,,0.20,0,Wunderground v.1.15,2013-04-21 02:35:00,
2013-04-20 22:40:00,48.4,45.6,30.25,NW,319,0.0,12.0,90,0.00,,,0.20,0,Wunderground v.1.15,2013-04-21 02:40:00,
2013-04-20 22:50:00,47.8,45.3,30.25,NW,319,0.0,12.0,91,0.00,,,0.20,0,Wunderground v.1.15,2013-04-21 02:50:00,
2013-04-20 22:55:00,47.7,45.2,30.25,NW,319,0.0,12.0,91,0.00,,,0.20,0,Wunderground v.1.15,2013-04-21 02:55:00,
2013-04-20 23:00:00,47.4,44.9,30.25,NW,319,0.0,12.0,91,0.00,,,0.20,0,Wunderground v.1.15,2013-04-21 03:00:00,
2013-04-20 23:10:00,47.1,44.9,30.25,NW,319,0.0,12.0,92,0.00,,,0.20,0,Wunderground v.1.15,2013-04-21 03:10:00,
2013-04-20 23:15:00,46.9,44.7,30.26,NW,319,0.0,12.0,92,0.00,,,0.20,0,Wunderground v.1.15,2013-04-21 03:15:00,
2013-04-20 23:20:00,46.7,44.5,30.26,NW,319,0.0,12.0,92,0.00,,,0.20,0,Wunderground v.1.15,2013-04-21 03:20:00,
2013-04-20 23:25:00,46.6,44.4,30.26,NW,319,0.0,12.0,92,0.00,,,0.20,0,Wunderground v.1.15,2013-04-21 03:25:00,
2013-04-20 23:30:00,46.5,44.3,30.26,NW,319,0.0,12.0,92,0.00,,,0.20,0,Wunderground v.1.15,2013-04-21 03:30:00,
2013-04-20 23:40:00,46.1,44.2,30.27,NW,319,0.0,12.0,93,0.00,,,0.20,0,Wunderground v.1.15,2013-04-21 03:40:00,
2013-04-20 23:45:00,46.0,44.1,30.27,NW,319,0.0,12.0,93,0.00,,,0.20,0,Wunderground v.1.15,2013-04-21 03:45:00,
2013-04-20 23:50:00,45.9,44.0,30.27,NW,319,0.0,12.0,93,0.00,,,0.20,0,Wunderground v.1.15,2013-04-21 03:50:00,
2013-04-20 23:55:00,45.8,43.9,30.27,NW,319,0.0,12.0,93,0.00,,,0.20,0,Wunderground v.1.15,2013-04-21 03:55:00,